Time;durP1;ratioP1;P1;durP2;ratioP2;P2;SDS_P1;SDS_P2;PMS_P1;PMS_P2;Temp;Humidity;BMP_temperature;BMP_pressure;BME280_temperature;BME280_humidity;BME280_pressure;Samples;Min_cycle;Max_cycle;Signal;HPM_P1;HPM_P2
2022/04/20 00:01:47;;;;;;;20.40;14.40;;;;;;;-0.04;79.34;96390.21;107691;1270;39742;-79
2022/04/20 00:04:18;;;;;;;17.60;12.50;;;;;;;-0.05;79.85;96390.30;107665;1270;36090;-79
2022/04/20 00:06:49;;;;;;;15.90;12.20;;;;;;;-0.02;79.91;96386.63;107698;1270;37014;-79
2022/04/20 00:09:20;;;;;;;16.70;12.70;;;;;;;-0.02;80.00;96389.45;107727;1268;34384;-79
2022/04/20 00:11:50;;;;;;;20.00;13.70;;;;;;;-0.03;79.83;96388.59;107786;1267;36038;-79
2022/04/20 00:14:21;;;;;;;17.50;13.30;;;;;;;-0.01;79.97;96384.38;107719;1268;35150;-79
2022/04/20 00:16:52;;;;;;;18.30;13.30;;;;;;;0.02;79.66;96387.12;107774;1268;34867;-79
2022/04/20 00:19:23;;;;;;;17.40;12.90;;;;;;;0.02;80.09;96382.79;107749;1267;37546;-79
2022/04/20 00:21:54;;;;;;;17.60;12.80;;;;;;;0.06;79.94;96384.98;107718;1268;35221;-79
2022/04/20 00:24:24;;;;;;;18.70;13.00;;;;;;;0.11;79.78;96382.77;107707;1268;34694;-79
2022/04/20 00:26:55;;;;;;;19.00;12.70;;;;;;;0.13;79.64;96378.81;107680;1268;39107;-79
2022/04/20 00:29:26;;;;;;;17.40;12.90;;;;;;;0.18;79.51;96375.75;107727;1268;37078;-79
2022/04/20 00:31:57;;;;;;;17.60;13.70;;;;;;;0.24;79.30;96376.52;107681;1268;35927;-79
2022/04/20 00:34:28;;;;;;;16.80;12.80;;;;;;;0.26;79.10;96374.80;107729;1268;36535;-79
2022/04/20 00:36:59;;;;;;;15.30;11.70;;;;;;;0.21;78.89;96379.09;107697;1270;32981;-79
2022/04/20 00:39:30;;;;;;;15.50;10.90;;;;;;;0.11;78.32;96376.31;107690;1270;33356;-79
2022/04/20 00:42:01;;;;;;;15.40;10.70;;;;;;;-0.04;78.72;96379.23;107707;1268;37368;-79
2022/04/20 00:44:32;;;;;;;15.80;11.90;;;;;;;-0.14;79.09;96381.89;107738;1268;31900;-79
2022/04/20 00:47:04;;;;;;;16.30;12.20;;;;;;;-0.15;79.48;96387.56;107751;1267;32416;-79
2022/04/20 00:49:37;;;;;;;19.80;12.90;;;;;;;-0.10;80.03;96386.45;107696;1268;56062;-79
2022/04/20 00:52:09;;;;;;;18.00;13.80;;;;;;;-0.05;79.77;96391.59;107826;1268;36904;-79
2022/04/20 00:54:40;;;;;;;19.30;12.80;;;;;;;0.00;79.71;96394.16;107730;1267;32660;-78
2022/04/20 00:57:12;;;;;;;15.90;11.90;;;;;;;0.03;79.60;96395.70;107706;1268;34318;-78
2022/04/20 00:59:45;;;;;;;15.40;11.60;;;;;;;-0.02;79.48;96400.55;107742;1267;37055;-79
2022/04/20 01:02:16;;;;;;;13.20;9.90;;;;;;;-0.13;79.47;96402.37;107745;1267;34005;-79
2022/04/20 01:04:47;;;;;;;12.40;9.80;;;;;;;-0.24;79.43;96402.30;107731;1267;34456;-79
2022/04/20 01:07:19;;;;;;;16.20;10.50;;;;;;;-0.30;80.22;96409.09;107748;1268;35006;-79
2022/04/20 01:09:50;;;;;;;16.30;10.70;;;;;;;-0.32;80.69;96404.39;107741;1267;34839;-78
2022/04/20 01:12:21;;;;;;;23.50;17.20;;;;;;;-0.41;80.98;96403.08;107747;1268;42154;-78
2022/04/20 01:14:52;;;;;;;17.60;12.50;;;;;;;-0.55;81.25;96400.66;107762;1267;37748;-79
2022/04/20 01:17:23;;;;;;;14.20;10.70;;;;;;;-0.60;81.80;96399.98;107739;1267;34673;-79
2022/04/20 01:19:54;;;;;;;16.60;12.10;;;;;;;-0.67;81.93;96397.60;107779;1265;35196;-78
2022/04/20 01:22:25;;;;;;;18.00;12.60;;;;;;;-0.65;82.51;96395.78;107738;1267;35427;-79
2022/04/20 01:24:56;;;;;;;18.10;12.90;;;;;;;-0.59;82.58;96397.81;107716;1268;35271;-79
2022/04/20 01:27:27;;;;;;;20.30;16.40;;;;;;;-0.51;82.96;96396.20;107703;1267;35298;-79
2022/04/20 01:29:58;;;;;;;23.90;17.20;;;;;;;-0.42;82.68;96390.64;107743;1267;34583;-79
2022/04/20 01:32:29;;;;;;;28.40;16.70;;;;;;;-0.36;82.84;96390.69;107716;1268;57704;-79
2022/04/20 01:35:00;;;;;;;27.00;15.90;;;;;;;-0.25;83.78;96388.02;107658;1270;34378;-79
2022/04/20 01:37:31;;;;;;;26.50;16.10;;;;;;;-0.15;83.62;96391.41;107658;1270;35519;-79
2022/04/20 01:40:02;;;;;;;26.10;16.90;;;;;;;-0.12;83.65;96387.79;107718;1267;39732;-79
2022/04/20 01:42:33;;;;;;;25.10;15.40;;;;;;;-0.08;83.87;96383.36;107645;1270;35520;-79
2022/04/20 01:45:04;;;;;;;31.40;18.40;;;;;;;-0.04;84.18;96375.95;107686;1268;36272;-79
2022/04/20 01:47:35;;;;;;;25.40;15.10;;;;;;;0.04;84.57;96376.59;107758;1267;36179;-79
2022/04/20 01:50:07;;;;;;;27.40;18.90;;;;;;;0.09;84.45;96377.61;107798;1267;35524;-79
2022/04/20 01:52:38;;;;;;;25.70;16.30;;;;;;;0.11;84.49;96373.73;107865;1267;56169;-79
2022/04/20 01:55:10;;;;;;;25.50;18.60;;;;;;;0.13;84.30;96373.70;107845;1268;32306;-79
2022/04/20 01:57:41;;;;;;;22.60;15.00;;;;;;;0.14;84.20;96372.42;107724;1267;32642;-78
2022/04/20 02:00:16;;;;;;;20.20;15.00;;;;;;;0.16;84.38;96372.61;107704;1268;35031;-79
2022/04/20 02:02:47;;;;;;;30.60;19.50;;;;;;;0.17;84.68;96367.54;107673;1268;45042;-79
2022/04/20 02:05:18;;;;;;;25.50;17.80;;;;;;;0.19;84.68;96372.58;107713;1266;34131;-79
2022/04/20 02:07:49;;;;;;;21.90;12.80;;;;;;;0.19;84.93;96367.88;107714;1270;36163;-79
2022/04/20 02:10:21;;;;;;;31.00;22.00;;;;;;;0.17;85.16;96366.73;107732;1268;34265;-79
2022/04/20 02:12:52;;;;;;;27.00;16.10;;;;;;;0.19;85.17;96367.11;107735;1268;61162;-79
2022/04/20 02:15:23;;;;;;;34.90;21.60;;;;;;;0.22;85.84;96365.06;107707;1267;38114;-79
2022/04/20 02:17:53;;;;;;;35.10;23.50;;;;;;;0.28;86.03;96363.07;107704;1265;37570;-79
2022/04/20 02:20:25;;;;;;;34.90;24.00;;;;;;;0.31;85.65;96361.61;107659;1270;35295;-79
2022/04/20 02:22:56;;;;;;;32.30;21.40;;;;;;;0.29;85.51;96353.88;107710;1267;34663;-79
2022/04/20 02:25:29;;;;;;;33.20;21.90;;;;;;;0.23;85.18;96354.70;107727;1270;36974;-79
2022/04/20 02:28:00;;;;;;;32.10;20.20;;;;;;;0.15;84.85;96353.48;107698;1267;48245;-79
2022/04/20 02:30:31;;;;;;;29.60;19.90;;;;;;;0.06;84.58;96347.19;107706;1267;35970;-79
2022/04/20 02:33:01;;;;;;;25.30;18.40;;;;;;;-0.00;84.79;96346.81;107740;1268;34609;-80
2022/04/20 02:35:33;;;;;;;30.10;19.20;;;;;;;-0.05;84.59;96350.53;107669;1270;34223;-79
2022/04/20 02:38:06;;;;;;;23.60;15.90;;;;;;;-0.00;84.79;96347.85;107833;1268;31439;-79
2022/04/20 02:40:38;;;;;;;30.20;18.20;;;;;;;0.06;85.19;96347.46;107828;1267;32100;-79
2022/04/20 02:43:09;;;;;;;29.70;19.20;;;;;;;0.12;85.34;96349.17;107677;1270;38063;-80
2022/04/20 02:45:40;;;;;;;36.40;26.00;;;;;;;0.13;85.60;96345.25;107770;1270;32858;-79
2022/04/20 02:48:12;;;;;;;35.50;25.00;;;;;;;0.23;85.86;96344.44;107748;1267;36078;-79
2022/04/20 02:50:44;;;;;;;38.40;25.40;;;;;;;0.29;85.96;96343.50;107727;1267;34387;-79
2022/04/20 02:53:15;;;;;;;36.60;23.90;;;;;;;0.34;86.10;96344.44;107734;1268;32100;-79
2022/04/20 02:55:46;;;;;;;36.30;25.20;;;;;;;0.41;86.01;96349.19;107757;1268;32856;-79
2022/04/20 02:58:16;;;;;;;38.20;27.30;;;;;;;0.43;85.70;96354.52;107699;1267;38686;-79
2022/04/20 03:00:48;;;;;;;37.80;26.80;;;;;;;0.43;85.63;96354.92;107704;1270;35079;-79
2022/04/20 03:03:19;;;;;;;27.10;19.00;;;;;;;0.43;85.52;96362.79;107724;1269;35600;-79
2022/04/20 03:05:51;;;;;;;35.50;24.70;;;;;;;0.47;85.50;96361.05;107718;1267;35484;-79
2022/04/20 03:08:23;;;;;;;33.50;23.90;;;;;;;0.52;85.33;96365.91;107758;1267;44511;-79
2022/04/20 03:10:54;;;;;;;31.30;23.20;;;;;;;0.56;85.35;96368.42;107842;1267;32542;-79
2022/04/20 03:13:25;;;;;;;29.10;21.80;;;;;;;0.57;84.95;96364.56;107663;1267;35304;-79
2022/04/20 03:15:56;;;;;;;32.10;21.00;;;;;;;0.59;85.08;96362.94;107709;1268;35666;-79
2022/04/20 03:18:31;;;;;;;33.00;22.80;;;;;;;0.59;84.96;96362.37;107704;1268;36717;-79
2022/04/20 03:21:03;;;;;;;32.90;22.10;;;;;;;0.59;85.12;96360.17;107676;1270;33988;-79
2022/04/20 03:23:33;;;;;;;35.10;23.60;;;;;;;0.58;84.85;96358.89;107648;1268;36422;-79
2022/04/20 03:26:06;;;;;;;33.10;24.30;;;;;;;0.58;84.87;96353.16;107724;1268;33648;-79
2022/04/20 03:28:38;;;;;;;31.20;23.40;;;;;;;0.60;84.98;96351.16;107763;1269;33334;-79
2022/04/20 03:31:12;;;;;;;36.40;24.30;;;;;;;0.61;84.79;96350.08;107701;1270;50325;-79
2022/04/20 03:33:43;;;;;;;36.80;24.90;;;;;;;0.59;85.26;96349.65;107715;1270;35982;-79
2022/04/20 03:36:14;;;;;;;35.80;23.30;;;;;;;0.61;85.00;96347.22;107671;1270;35966;-79
2022/04/20 03:38:45;;;;;;;29.80;21.00;;;;;;;0.63;84.76;96349.77;107728;1266;36954;-79
2022/04/20 03:41:16;;;;;;;24.80;18.80;;;;;;;0.62;84.99;96348.29;107704;1268;32983;-79
2022/04/20 03:43:47;;;;;;;32.30;21.60;;;;;;;0.59;84.79;96347.60;107766;1268;36456;-79
2022/04/20 03:46:18;;;;;;;33.90;24.70;;;;;;;0.58;84.93;96345.29;107733;1267;32609;-79
2022/04/20 03:48:50;;;;;;;29.60;21.90;;;;;;;0.58;84.73;96347.27;107698;1270;32472;-79
2022/04/20 03:51:21;;;;;;;32.60;24.00;;;;;;;0.58;84.85;96345.61;107728;1270;32859;-79
2022/04/20 03:53:51;;;;;;;31.90;21.90;;;;;;;0.59;84.90;96344.73;107704;1269;33062;-79
2022/04/20 03:56:22;;;;;;;30.70;21.80;;;;;;;0.59;84.83;96344.36;107652;1270;37429;-79
2022/04/20 03:58:53;;;;;;;28.30;21.70;;;;;;;0.60;84.80;96343.86;107716;1268;33778;-79
2022/04/20 04:01:24;;;;;;;34.90;24.80;;;;;;;0.59;84.83;96345.00;107711;1268;41232;-79
2022/04/20 04:03:55;;;;;;;32.70;23.40;;;;;;;0.61;84.64;96353.05;107754;1265;33379;-79
2022/04/20 04:06:25;;;;;;;32.70;23.40;;;;;;;0.64;84.64;96357.77;107754;1268;36066;-79
2022/04/20 04:08:56;;;;;;;33.00;23.70;;;;;;;0.68;84.60;96362.09;107649;1270;35261;-79
2022/04/20 04:11:27;;;;;;;33.20;22.90;;;;;;;0.71;84.67;96366.46;107656;1270;32329;-79
2022/04/20 04:13:58;;;;;;;28.60;19.50;;;;;;;0.74;84.74;96367.12;107706;1268;39259;-79
2022/04/20 04:16:29;;;;;;;29.50;21.10;;;;;;;0.73;84.53;96365.60;107743;1268;35760;-79
2022/04/20 04:19:00;;;;;;;33.40;22.30;;;;;;;0.73;84.63;96371.70;107733;1268;33678;-79
2022/04/20 04:21:31;;;;;;;31.40;24.20;;;;;;;0.73;84.60;96370.70;107730;1268;35695;-79
2022/04/20 04:24:03;;;;;;;33.70;23.80;;;;;;;0.72;84.50;96372.08;107689;1268;49216;-79
2022/04/20 04:26:34;;;;;;;30.30;22.30;;;;;;;0.70;84.22;96369.88;107648;1270;33344;-79
2022/04/20 04:29:17;;;;;;;34.20;25.60;;;;;;;0.71;84.51;96369.65;107639;1270;44604;-80
2022/04/20 04:31:47;;;;;;;33.00;24.00;;;;;;;0.73;84.19;96373.83;107673;1270;39773;-80
2022/04/20 04:34:18;;;;;;;27.90;21.30;;;;;;;0.75;84.69;96379.38;107714;1270;35071;-79
2022/04/20 04:36:50;;;;;;;34.60;25.00;;;;;;;0.80;84.42;96382.14;107742;1268;35958;-79
2022/04/20 04:39:22;;;;;;;35.20;25.50;;;;;;;0.85;84.22;96380.23;107765;1268;33255;-79
2022/04/20 04:41:53;;;;;;;32.90;23.70;;;;;;;0.91;83.98;96381.28;107731;1268;31648;-79
2022/04/20 04:44:24;;;;;;;31.00;23.60;;;;;;;0.97;83.82;96379.06;107743;1268;33128;-79
2022/04/20 04:49:44;;;;;;;32.10;23.30;;;;;;;1.07;83.81;96382.57;107523;1271;35369;-79
2022/04/20 04:52:15;;;;;;;28.50;20.40;;;;;;;1.13;83.40;96382.61;107711;1270;33478;-79
2022/04/20 04:54:46;;;;;;;28.70;20.70;;;;;;;1.26;83.45;96381.84;107693;1270;35772;-79
2022/04/20 04:57:17;;;;;;;30.10;24.00;;;;;;;1.47;83.36;96377.98;107646;1270;38860;-79
2022/04/20 04:59:48;;;;;;;32.30;26.20;;;;;;;2.56;84.07;96369.65;107681;1268;40283;-79
2022/04/20 05:02:19;;;;;;;32.40;27.80;;;;;;;4.19;82.93;96363.88;107690;1267;37796;-79
2022/04/20 05:04:50;;;;;;;30.90;27.00;;;;;;;5.69;80.15;96365.27;107580;1270;47979;-80
2022/04/20 05:07:22;;;;;;;28.70;25.20;;;;;;;7.00;76.73;96361.34;107678;1270;30406;-80
2022/04/20 05:09:53;;;;;;;26.60;23.70;;;;;;;7.89;73.30;96359.51;107569;1267;33130;-80
2022/04/20 05:12:22;;;;;;;;;;;;;;;7.15;69.95;96355.88;107684;1267;35409;-80
2022/04/20 05:14:53;;;;;;;28.20;23.00;;;;;;;5.97;69.55;96365.93;107722;1268;40405;-80
2022/04/20 05:17:24;;;;;;;27.50;22.90;;;;;;;5.07;70.56;96367.40;107698;1268;33559;-80
2022/04/20 05:19:55;;;;;;;28.00;24.30;;;;;;;5.17;72.17;96364.91;107687;1270;53496;-79
2022/04/20 05:22:26;;;;;;;26.30;23.20;;;;;;;5.50;72.02;96367.50;107666;1270;33223;-80
2022/04/20 05:24:57;;;;;;;27.40;24.30;;;;;;;5.75;71.24;96362.27;107649;1270;37627;-79
2022/04/20 05:27:27;;;;;;;27.20;24.10;;;;;;;6.61;70.73;96360.70;107633;1268;41566;-80
2022/04/20 05:29:59;;;;;;;28.10;25.00;;;;;;;7.58;69.27;96356.64;107683;1270;36280;-79
2022/04/20 05:32:30;;;;;;;26.90;23.50;;;;;;;7.43;67.24;96358.81;107685;1270;32165;-79
2022/04/20 05:35:01;;;;;;;24.20;21.60;;;;;;;7.39;66.50;96356.16;107673;1267;41495;-80
2022/04/20 05:43:09;;;;;;;23.20;20.80;;;;;;;8.68;65.43;96352.38;107802;1270;32952;-79
2022/04/20 05:45:39;;;;;;;22.00;19.70;;;;;;;10.18;62.80;96354.23;107743;1270;36076;-80
2022/04/20 05:48:12;;;;;;;21.70;19.40;;;;;;;11.20;60.12;96345.94;107738;1268;36387;-78
2022/04/20 05:50:44;;;;;;;20.30;18.10;;;;;;;12.12;57.93;96341.36;107722;1268;43716;-79
2022/04/20 05:53:15;;;;;;;19.60;17.60;;;;;;;12.82;55.65;96339.88;107703;1270;35782;-79
2022/04/20 05:55:46;;;;;;;19.40;17.40;;;;;;;13.41;52.98;96339.29;107693;1268;35788;-79
2022/04/20 05:58:17;;;;;;;18.40;16.40;;;;;;;13.52;50.76;96339.61;107620;1270;32807;-79
2022/04/20 06:00:48;;;;;;;16.70;15.00;;;;;;;13.92;52.25;96343.66;107743;1267;34603;-79
2022/04/20 06:03:19;;;;;;;18.50;15.70;;;;;;;14.63;49.98;96340.84;107658;1270;34984;-80
2022/04/20 06:05:50;;;;;;;18.90;15.50;;;;;;;14.87;48.19;96338.54;107718;1268;37267;-79
2022/04/20 06:08:21;;;;;;;17.10;15.40;;;;;;;15.07;47.41;96331.06;107683;1268;41738;-79
2022/04/20 06:10:52;;;;;;;14.60;12.90;;;;;;;15.61;46.44;96328.16;107711;1268;34011;-79
2022/04/20 06:13:22;;;;;;;16.50;14.80;;;;;;;15.66;44.96;96331.75;107664;1267;53945;-79
2022/04/20 06:15:54;;;;;;;15.60;14.00;;;;;;;15.31;43.86;96332.09;107696;1268;31309;-79
2022/04/20 06:18:24;;;;;;;16.80;15.10;;;;;;;15.92;45.66;96334.05;107702;1268;39608;-79
2022/04/20 06:20:55;;;;;;;14.20;12.80;;;;;;;16.56;42.61;96328.92;107740;1268;39129;-79
2022/04/20 06:23:26;;;;;;;13.70;12.30;;;;;;;16.10;39.55;96321.75;107685;1268;32255;-79
2022/04/20 06:25:58;;;;;;;13.80;11.90;;;;;;;15.12;38.08;96318.58;107612;1267;39385;-79
2022/04/20 06:28:29;;;;;;;13.20;11.90;;;;;;;13.85;39.67;96328.23;107739;1268;39269;-79
2022/04/20 06:31:00;;;;;;;14.10;12.20;;;;;;;13.11;40.31;96326.21;107708;1268;38369;-79
2022/04/20 06:33:31;;;;;;;14.80;12.40;;;;;;;12.06;41.55;96321.02;107711;1268;38797;-79
2022/04/20 06:36:02;;;;;;;14.70;12.40;;;;;;;10.72;43.70;96323.40;107723;1267;39223;-79
2022/04/20 06:38:32;;;;;;;15.20;13.60;;;;;;;10.37;45.38;96324.25;107768;1268;57837;-78
2022/04/20 06:41:03;;;;;;;16.60;13.90;;;;;;;10.68;45.56;96321.75;107733;1268;32651;-78
2022/04/20 06:43:35;;;;;;;17.30;15.40;;;;;;;10.36;45.14;96315.72;107715;1270;34052;-78
2022/04/20 06:46:07;;;;;;;17.40;12.20;;;;;;;9.75;47.59;96316.67;107808;1267;33711;-79
2022/04/20 06:48:38;;;;;;;16.40;14.60;;;;;;;8.91;48.06;96312.94;107798;1268;36062;-79
2022/04/20 06:51:09;;;;;;;12.00;10.70;;;;;;;8.04;49.90;96315.19;107815;1268;32477;-78
2022/04/20 06:59:17;;;;;;;16.50;13.20;;;;;;;6.29;53.84;96304.01;107720;1268;37378;-78
2022/04/20 07:01:48;;;;;;;11.30;7.80;;;;;;;5.95;55.24;96303.64;107715;1268;32292;-78
2022/04/20 07:04:20;;;;;;;15.70;11.20;;;;;;;5.68;56.51;96307.20;107739;1268;34932;-78
2022/04/20 07:06:52;;;;;;;12.20;8.00;;;;;;;5.51;57.13;96305.56;107721;1270;34645;-78
2022/04/20 07:09:23;;;;;;;15.00;12.50;;;;;;;5.35;57.77;96308.25;107718;1270;32729;-78
2022/04/20 07:11:54;;;;;;;15.40;12.20;;;;;;;5.29;58.06;96306.79;107700;1270;32860;-78
2022/04/20 07:14:25;;;;;;;12.00;9.40;;;;;;;5.28;58.73;96307.05;107727;1268;37110;-78
2022/04/20 07:16:56;;;;;;;19.40;13.40;;;;;;;5.27;59.11;96302.20;107706;1268;32783;-78
2022/04/20 07:19:27;;;;;;;18.00;13.80;;;;;;;5.34;58.68;96302.30;107688;1268;31094;-78
2022/04/20 07:21:58;;;;;;;15.20;10.50;;;;;;;5.41;58.88;96302.51;107752;1268;32420;-78
2022/04/20 07:24:31;;;;;;;14.70;10.70;;;;;;;5.38;59.03;96301.55;107701;1270;34193;-78
2022/04/20 07:27:02;;;;;;;11.40;7.60;;;;;;;5.36;59.48;96303.43;107665;1268;39934;-78
2022/04/20 07:29:33;;;;;;;16.60;10.90;;;;;;;5.31;59.24;96299.18;106816;1270;423436;-78
2022/04/20 07:32:05;;;;;;;13.90;11.00;;;;;;;5.24;59.59;96309.23;107664;1268;41205;-78
2022/04/20 07:34:36;;;;;;;14.50;9.80;;;;;;;5.21;59.30;96307.14;107778;1270;38187;-78
2022/04/20 07:37:07;;;;;;;12.70;8.40;;;;;;;5.13;59.09;96307.66;107799;1268;33406;-78
2022/04/20 07:39:38;;;;;;;10.10;6.90;;;;;;;5.02;58.95;96300.05;107812;1268;41728;-78
2022/04/20 07:42:10;;;;;;;12.30;9.40;;;;;;;4.96;58.79;96299.17;107755;1268;36645;-78
2022/04/20 07:44:42;;;;;;;13.00;9.00;;;;;;;4.92;59.25;96304.33;107739;1270;33646;-77
2022/04/20 07:47:12;;;;;;;13.70;9.20;;;;;;;4.93;59.65;96298.98;107728;1268;33330;-78
2022/04/20 07:52:37;;;;;;;14.30;10.30;;;;;;;4.96;59.77;96299.33;107691;1271;32322;-78
2022/04/20 07:55:12;;;;;;;14.30;11.30;;;;;;;4.95;59.60;96300.52;107748;1270;37050;-78
2022/04/20 07:57:43;;;;;;;11.70;7.90;;;;;;;4.97;60.18;96301.17;107683;1270;36951;-78
2022/04/20 08:00:16;;;;;;;11.90;9.10;;;;;;;4.94;59.81;96298.37;107695;1268;35463;-78
2022/04/20 08:02:48;;;;;;;11.10;6.90;;;;;;;4.87;60.35;96292.77;107697;1268;41214;-78
2022/04/20 08:05:20;;;;;;;14.20;10.90;;;;;;;4.81;60.75;96297.04;107706;1268;33122;-78
2022/04/20 08:07:51;;;;;;;15.90;12.20;;;;;;;4.79;60.93;96296.91;107742;1270;41002;-78
2022/04/20 08:10:22;;;;;;;13.90;9.90;;;;;;;4.81;61.14;96295.63;107773;1268;34901;-78
2022/04/20 08:12:54;;;;;;;17.90;14.30;;;;;;;4.84;61.24;96299.80;107756;1267;34514;-78
2022/04/20 08:15:25;;;;;;;16.80;12.60;;;;;;;4.83;61.13;96296.52;107711;1268;33466;-79
2022/04/20 08:17:56;;;;;;;16.80;12.60;;;;;;;4.81;61.34;96299.30;107715;1268;31800;-78
2022/04/20 08:20:27;;;;;;;16.40;13.20;;;;;;;4.82;61.67;96300.83;107705;1268;41694;-78
2022/04/20 08:22:58;;;;;;;18.00;13.70;;;;;;;4.84;62.20;96302.84;107800;1268;33426;-78
2022/04/20 08:25:29;;;;;;;13.50;10.30;;;;;;;4.84;61.78;96301.63;107725;1268;36134;-79
2022/04/20 08:28:00;;;;;;;16.90;11.70;;;;;;;4.82;61.68;96301.14;107677;1268;36819;-78
2022/04/20 08:30:35;;;;;;;15.00;12.20;;;;;;;4.80;62.40;96303.02;107674;1268;33088;-79
2022/04/20 08:33:09;;;;;;;16.40;11.20;;;;;;;4.82;62.33;96298.04;107763;1268;38308;-79
2022/04/20 08:35:40;;;;;;;14.80;10.40;;;;;;;4.86;62.13;96296.29;107769;1267;32801;-78
2022/04/20 08:38:11;;;;;;;17.10;12.10;;;;;;;4.90;62.18;96295.95;107732;1268;36271;-77
2022/04/20 08:40:44;;;;;;;11.70;8.10;;;;;;;4.94;62.22;96291.42;107768;1268;32187;-78
2022/04/20 08:43:15;;;;;;;17.10;12.80;;;;;;;4.93;61.98;96288.06;107836;1270;35576;-78
2022/04/20 08:45:47;;;;;;;19.20;12.20;;;;;;;4.93;62.38;96287.73;107736;1268;34727;-78
2022/04/20 08:48:19;;;;;;;16.40;10.40;;;;;;;4.86;62.59;96281.05;107713;1268;48741;-78
2022/04/20 08:50:53;;;;;;;15.00;10.80;;;;;;;4.83;62.82;96282.13;107688;1270;51172;-78
2022/04/20 08:53:25;;;;;;;17.80;12.90;;;;;;;4.88;63.06;96277.45;107638;1270;36476;-78
2022/04/20 08:57:15;;;;;;;15.10;11.90;;;;;;;5.05;63.40;96275.39;107692;1270;33709;-79
2022/04/20 08:58:50;;;;;;;14.60;10.90;;;;;;;5.20;62.91;96271.61;107716;1271;32325;-78
2022/04/20 09:01:21;;;;;;;15.00;10.80;;;;;;;5.31;62.35;96269.95;107699;1268;36778;-78
2022/04/20 09:03:55;;;;;;;16.30;12.90;;;;;;;5.35;62.38;96265.72;107695;1268;34062;-78
2022/04/20 09:06:26;;;;;;;11.60;7.50;;;;;;;5.44;62.09;96263.77;107683;1271;34266;-78
2022/04/20 09:08:57;;;;;;;15.70;12.10;;;;;;;5.50;61.95;96264.98;107701;1271;36664;-78
2022/04/20 09:11:28;;;;;;;12.10;6.40;;;;;;;5.60;61.21;96265.81;107721;1271;33832;-78
2022/04/20 09:14:14;;;;;;;11.90;6.70;;;;;;;5.51;60.21;96261.61;107721;1270;34397;-78
2022/04/20 09:16:46;;;;;;;12.10;6.90;;;;;;;5.48;59.56;96259.80;107716;1271;32186;-78
2022/04/20 09:19:23;;;;;;;12.70;9.80;;;;;;;5.48;60.01;96265.33;107756;1267;36100;-78
2022/04/20 09:21:55;;;;;;;10.70;6.50;;;;;;;5.63;60.33;96265.05;107748;1267;49936;-79
2022/04/20 09:24:26;;;;;;;13.70;9.60;;;;;;;5.70;60.00;96265.83;107677;1270;46109;-78
2022/04/20 09:26:58;;;;;;;12.90;9.10;;;;;;;5.81;60.20;96264.61;107645;1271;47318;-78
2022/04/20 09:29:29;;;;;;;12.80;10.30;;;;;;;5.78;58.86;96257.92;107698;1271;34057;-78
2022/04/20 09:32:00;;;;;;;10.90;8.10;;;;;;;5.69;59.23;96270.02;107705;1271;32723;-79
2022/04/20 09:34:53;;;;;;;13.10;8.50;;;;;;;5.67;59.59;96268.86;106220;1271;1968997;-78
2022/04/20 09:37:24;;;;;;;11.60;7.20;;;;;;;5.66;59.96;96272.75;107692;1268;34683;-79
2022/04/20 09:39:55;;;;;;;12.50;10.20;;;;;;;5.63;59.35;96268.67;107683;1271;36698;-78
2022/04/20 09:42:26;;;;;;;9.70;5.40;;;;;;;5.56;59.58;96270.69;107652;1271;41784;-79
2022/04/20 09:45:00;;;;;;;10.80;9.40;;;;;;;5.44;59.02;96267.51;107708;1271;32005;-79
2022/04/20 09:50:25;;;;;;;10.30;7.20;;;;;;;5.41;59.68;96270.55;107680;1271;34439;-78
2022/04/20 09:52:59;;;;;;;15.20;7.80;;;;;;;5.33;59.91;96269.13;107706;1271;63740;-79
2022/04/20 09:55:33;;;;;;;11.60;7.20;;;;;;;5.27;60.43;96272.60;107719;1271;38864;-78
2022/04/20 09:58:17;;;;;;;9.70;6.90;;;;;;;5.29;61.01;96270.40;107673;1270;36797;-78
2022/04/20 10:00:50;;;;;;;11.90;10.00;;;;;;;5.29;60.61;96270.36;107676;1271;37509;-78
2022/04/20 10:03:28;;;;;;;11.90;9.40;;;;;;;5.27;60.98;96265.56;107721;1271;33614;-78
2022/04/20 10:05:59;;;;;;;14.70;10.60;;;;;;;5.28;61.16;96263.84;107738;1268;34090;-79
2022/04/20 10:08:30;;;;;;;9.10;6.80;;;;;;;5.27;60.75;96264.41;107707;1268;37651;-78
2022/04/20 10:11:03;;;;;;;10.80;7.40;;;;;;;5.26;60.87;96264.98;107660;1270;35109;-79
2022/04/20 10:13:36;;;;;;;14.10;11.00;;;;;;;5.23;60.37;96262.45;107652;1270;39543;-79
2022/04/20 10:16:12;;;;;;;13.30;10.30;;;;;;;5.23;60.75;96267.17;107738;1270;35940;-79
2022/04/20 10:18:46;;;;;;;15.10;10.60;;;;;;;5.23;61.63;96264.13;107829;1270;56008;-78
2022/04/20 10:21:17;;;;;;;15.30;11.90;;;;;;;5.25;61.48;96265.39;107724;1271;33979;-79
2022/04/20 10:23:51;;;;;;;14.40;11.40;;;;;;;5.30;61.19;96272.83;107600;1270;37733;-79
2022/04/20 10:26:25;;;;;;;15.90;12.70;;;;;;;5.35;60.82;96268.32;107714;1270;38367;-79
2022/04/20 10:29:05;;;;;;;13.70;11.60;;;;;;;5.40;60.86;96269.23;107635;1270;32638;-79
2022/04/20 10:31:42;;;;;;;12.10;9.40;;;;;;;5.48;60.84;96263.70;107648;1271;44668;-79
2022/04/20 10:34:18;;;;;;;14.90;11.90;;;;;;;5.56;60.90;96265.05;107694;1270;32876;-78
2022/04/20 10:37:01;;;;;;;16.70;12.00;;;;;;;5.67;60.55;96260.34;107739;1271;33534;-79
2022/04/20 10:39:37;;;;;;;16.70;12.30;;;;;;;5.77;60.47;96259.48;107704;1271;40177;-79
2022/04/20 10:42:25;;;;;;;10.90;9.00;;;;;;;5.86;60.05;96260.95;107689;1271;61902;-78
2022/04/20 10:45:03;;;;;;;12.10;8.40;;;;;;;5.87;58.15;96253.33;107658;1268;35861;-79
2022/04/20 10:47:36;;;;;;;13.40;9.20;;;;;;;5.81;58.82;96258.98;107629;1271;42899;-79
2022/04/20 10:50:21;;;;;;;10.10;6.80;;;;;;;5.79;59.46;96257.46;107680;1271;40080;-78
2022/04/20 10:52:58;;;;;;;8.60;5.60;;;;;;;5.76;59.19;96258.02;107555;1271;32897;-78
2022/04/20 10:55:55;;;;;;;12.40;9.20;;;;;;;5.67;58.27;96254.34;107657;1271;38875;-79
2022/04/20 10:58:26;;;;;;;9.30;6.20;;;;;;;5.69;59.09;96253.41;107589;1270;35687;-79
2022/04/20 11:01:12;;;;;;;11.00;7.70;;;;;;;5.71;58.19;96252.20;107619;1271;37165;-79
2022/04/20 11:04:06;;;;;;;11.80;7.40;;;;;;;5.72;58.28;96248.89;107633;1270;31564;-78
2022/04/20 11:07:12;;;;;;;13.30;9.60;;;;;;;5.69;58.63;96249.04;107854;1270;35004;-79
2022/04/20 11:09:56;;;;;;;15.70;9.10;;;;;;;5.70;58.64;96249.41;107629;1271;47611;-78
2022/04/20 11:18:42;;;;;;;15.30;10.80;;;;;;;5.65;58.33;96242.56;107401;1269;267857;-79
2022/04/20 11:21:19;;;;;;;11.60;8.50;;;;;;;5.77;59.30;96239.92;107666;1269;42739;-78
2022/04/20 11:23:57;;;;;;;13.70;10.60;;;;;;;5.92;58.62;96233.55;107657;1269;34954;-78
2022/04/20 11:26:30;;;;;;;13.00;9.20;;;;;;;6.14;58.78;96232.61;107635;1268;36957;-79
2022/04/20 11:29:03;;;;;;;12.60;10.80;;;;;;;6.37;57.69;96223.95;107672;1268;39774;-78
2022/04/20 11:31:46;;;;;;;12.30;10.30;;;;;;;6.49;57.59;96224.13;107613;1270;35705;-79
2022/04/20 11:34:21;;;;;;;10.40;5.50;;;;;;;6.60;56.91;96212.02;107660;1271;36599;-78
2022/04/20 11:36:53;;;;;;;14.40;9.70;;;;;;;6.59;57.12;96212.59;107633;1268;32330;-79
2022/04/20 11:39:26;;;;;;;12.60;9.10;;;;;;;6.67;56.97;96213.66;107660;1268;35095;-79
2022/04/20 11:42:00;;;;;;;11.40;7.70;;;;;;;6.89;56.77;96203.29;107682;1268;36687;-78
2022/04/20 11:44:32;;;;;;;10.40;7.50;;;;;;;6.88;56.41;96201.17;107617;1271;35274;-79
2022/04/20 11:47:07;;;;;;;12.60;8.10;;;;;;;6.90;56.39;96194.80;107649;1271;33414;-78
2022/04/20 11:49:40;;;;;;;15.00;9.10;;;;;;;6.97;57.09;96197.27;107709;1271;33283;-78
2022/04/20 11:52:14;;;;;;;14.40;9.90;;;;;;;7.10;56.99;96195.20;107701;1271;32623;-79
2022/04/20 11:54:47;;;;;;;12.70;10.80;;;;;;;7.15;56.00;96187.86;107643;1270;35731;-78
2022/04/20 11:57:18;;;;;;;12.20;9.10;;;;;;;7.08;56.19;96188.63;107679;1269;32850;-78
2022/04/20 11:59:51;;;;;;;10.60;7.10;;;;;;;7.00;55.83;96183.20;107594;1271;38664;-78
2022/04/20 12:02:22;;;;;;;12.40;8.00;;;;;;;6.88;55.79;96179.89;107598;1271;41831;-79
2022/04/20 12:05:07;;;;;;;10.50;8.30;;;;;;;6.73;55.87;96187.10;107680;1268;34555;-79
2022/04/20 12:07:38;;;;;;;15.30;10.60;;;;;;;6.75;56.15;96191.59;107673;1271;31895;-80